Decoded Metar for LFBL (LIMOGES in FRANCE) (IATA:LIG) | Meteo·Mobile Aviation Weather
aviador You're here:

LFBL Decoded Metar

LIMOGES in FRANCE
Report Time2020-02-23 11:30:00
UTC Time2020-02-23 11:50:35
Flight Rules vfr VFR
Wind220° at 11 kt
W.Decomp.*RWY 21: 10.8 kt HW 2.1 kt RCW
Visibility9999 m
Phenomena:N/A
Clouds:N/A
Expected CloudBase > 1,200 ft AGL from Temp-Dew spread
CeilingNone
Temp10°C (ISA -2)
Dew Point07°C (82% RH)
AAT5.4°C
QNH1032 hPa
Density Alt538 ft
Elevation1,319 ft
Report Wrong Elevation
Raw Report
LFBL 231130Z AUTO 22011KT CAVOK 10/07 Q1032 NOSIG=

Extra information for LFBL:More info

Metar Taf Metar & Taf Last 4 Metars F.Rules Stats Wind Profile Meteogram Temp Stats Airport Information Weather charts Add Link Nearby VenuesMetar ALERT Operation Metar Decoded Social comments